Time;durP1;ratioP1;P1;durP2;ratioP2;P2;SDS_P1;SDS_P2;PMS_P1;PMS_P2;Temp;Humidity;BMP_temperature;BMP_pressure;BME280_temperature;BME280_humidity;BME280_pressure;Samples;Min_cycle;Max_cycle;Signal;HPM_P1;HPM_P2
2024/03/07 09:28:40;;;;;;;;;;;;;;;;;;4917122;29;19946;-88
2024/03/07 09:31:06;;;;;;;;;;;;;;;;;;4918967;29;19919;-85
2024/03/07 09:33:31;;;;;;;;;;;;;;;;;;4934026;29;19915;-85
2024/03/07 09:35:58;;;;;;;;;;;;;;;;;;4932154;29;19951;-83
2024/03/07 09:38:23;;;;;;;;;;;;;;;;;;4937205;29;19915;-84
2024/03/07 09:40:49;;;;;;;;;;;;;;;;;;4938716;29;20319;-84
2024/03/07 09:43:15;;;;;;;;;;;;;;;;;;4938360;29;20293;-83
2024/03/07 09:45:40;;;;;;;;;;;;;;;;;;4938313;29;20373;-83
2024/03/07 09:48:08;;;;;;;;;;;;;;;;;;4938490;29;19915;-84
2024/03/07 09:50:36;;;;;;;;;;;;;;;;;;4942002;29;19918;-90
2024/03/07 09:53:02;;;;;;;;;;;;;;;;;;4939297;29;19921;-90
2024/03/07 09:55:28;;;;;;;;;;;;;;;;;;4939408;29;19915;-90
2024/03/07 09:57:55;;;;;;;;;;;;;;;;;;4938432;29;19914;-92
2024/03/07 10:00:25;;;;;;;;;;;;;;;;;;4938461;29;19915;-91
2024/03/07 10:02:56;;;;;;;;;;;;;;;;;;4937956;29;19918;-93
2024/03/07 10:05:22;;;;;;;;;;;;;;;;;;4938509;29;19915;-89
2024/03/07 10:07:48;;;;;;;;;;;;;;;;;;4937056;29;19937;-89
2024/03/07 10:10:13;;;;;;;;;;;;;;;;;;4937270;29;19914;-91
2024/03/07 10:12:38;;;;;;;;;;;;;;;;;;4938293;29;19922;-88
2024/03/07 10:15:12;;;;;;;;;;;;;;;;;;4938363;29;19915;-89
2024/03/07 10:17:38;;;;;;;;;;;;;;;;;;4938305;29;19915;-91
2024/03/07 10:20:04;;;;;;;;;;;;;;;;;;4936727;29;20420;-89
2024/03/07 10:22:29;;;;;;;;;;;;;;;;;;4938208;29;20353;-89
2024/03/07 10:24:56;;;;;;;;;;;;;;;;;;4938571;29;19922;-87
2024/03/07 10:27:22;;;;;;;;;;;;;;;;;;4938289;29;20009;-90
2024/03/07 10:29:49;;;;;;;;;;;;;;;;;;4938484;29;19969;-88
2024/03/07 10:32:18;;;;;;;;;;;;;;;;;;4938697;29;19915;-90
2024/03/07 10:34:46;;;;;;;;;;;;;;;;;;4938630;29;19915;-87
2024/03/07 10:37:31;;;;;;;;;;;;;;;;;;;;;
2024/03/07 10:39:57;;;;;;;;;;;;;;;;;;4938165;29;19921;-88
2024/03/07 10:42:25;;;;;;;;;;;;;;;;;;4936684;29;20344;-88
2024/03/07 10:44:53;;;;;;;;;;;;;;;;;;4937605;29;19997;-88
2024/03/07 10:47:20;;;;;;;;;;;;;;;;;;4938361;29;19918;-87
2024/03/07 10:49:55;;;;;;;;;;;;;;;;;;4936907;29;19910;-87
2024/03/07 10:52:31;;;;;;;;;;;;;;;;;;4936812;29;19992;-89
2024/03/07 10:55:03;;;;;;;;;;;;;;;;;;4937142;29;19918;-87
2024/03/07 10:57:28;;;;;;;;;;;;;;;;;;4942031;29;20388;-88
2024/03/07 10:59:57;;;;;;;;;;;;;;;;;;4942270;29;19910;-88
2024/03/07 11:02:24;;;;;;;;;;;;;;;;;;4944696;29;19915;-90
2024/03/07 11:04:50;;;;;;;;;;;;;;;;;;4944411;29;19915;-87
2024/03/07 11:07:15;;;;;;;;;;;;;;;;;;4946425;29;20254;-90
2024/03/07 11:09:42;;;;;;;;;;;;;;;;;;4945250;29;19915;-89
2024/03/07 11:12:10;;;;;;;;;;;;;;;;;;4945260;29;19919;-89
2024/03/07 11:14:36;;;;;;;;;;;;;;;;;;4946311;29;19969;-88
2024/03/07 11:17:03;;;;;;;;;;;;;;;;;;4947104;29;19949;-89
2024/03/07 11:19:31;;;;;;;;;;;;;;;;;;4935603;29;19950;-88
2024/03/07 11:21:59;;;;;;;;;;;;;;;;;;4944070;29;19915;-88
2024/03/07 11:24:25;;;;;;;;;;;;;;;;;;4939795;29;19977;-88
2024/03/07 11:26:52;;;;;;;;;;;;;;;;;;4941749;29;19918;-89
2024/03/07 11:29:36;;;;;;;;;;;;;;;;;;4939440;29;20490;-90
2024/03/07 11:32:02;;;;;;;;;;;;;;;;;;4943398;29;19918;-89
2024/03/07 11:34:29;;;;;;;;;;;;;;;;;;4945128;29;19911;-90
2024/03/07 11:36:56;;;;;;;;;;;;;;;;;;4942516;29;19918;-90
2024/03/07 11:39:43;;;;;;;;;;;;;;;;;;4944081;29;19911;-90
2024/03/07 11:42:09;;;;;;;;;;;;;;;;;;4946121;29;19919;-92
2024/03/07 11:44:34;;;;;;;;;;;;;;;;;;4943377;29;19922;-88
2024/03/07 11:47:08;;;;;;;;;;;;;;;;;;4941791;29;19916;-88
2024/03/07 11:49:36;;;;;;;;;;;;;;;;;;4940572;29;19917;-86
2024/03/07 11:52:11;;;;;;;;;;;;;;;;;;4940765;29;19914;-87
2024/03/07 11:54:41;;;;;;;;;;;;;;;;;;4939438;29;19911;-87
2024/03/07 11:57:12;;;;;;;;;;;;;;;;;;4939478;29;19921;-87
2024/03/07 11:59:45;;;;;;;;;;;;;;;;;;4939424;29;20004;-87
2024/03/07 12:02:15;;;;;;;;;;;;;;;;;;4939232;29;19970;-87
2024/03/07 12:04:44;;;;;;;;;;;;;;;;;;4938969;29;20021;-86
2024/03/07 12:07:12;;;;;;;;;;;;;;;;;;4939139;29;20321;-86
2024/03/07 12:09:38;;;;;;;;;;;;;;;;;;4939225;29;20381;-87
2024/03/07 12:12:04;;;;;;;;;;;;;;;;;;4938752;29;19921;-87
2024/03/07 12:14:30;;;;;;;;;;;;;;;;;;4938728;29;19914;-86
2024/03/07 12:16:56;;;;;;;;;;;;;;;;;;4939373;29;20001;-86
2024/03/07 12:19:22;;;;;;;;;;;;;;;;;;4938863;29;19915;-87
2024/03/07 12:21:48;;;;;;;;;;;;;;;;;;4938637;29;19915;-87
2024/03/07 12:24:18;;;;;;;;;;;;;;;;;;4937577;29;19958;-87
2024/03/07 12:26:43;;;;;;;;;;;;;;;;;;4938096;29;19922;-86
2024/03/07 12:29:11;;;;;;;;;;;;;;;;;;4937201;29;19923;-87
2024/03/07 12:31:40;;;;;;;;;;;;;;;;;;4953189;28;19914;-86
2024/03/07 12:34:09;;;;;;;;;;;;;;;;;;4938622;29;19988;-87
2024/03/07 12:36:35;;;;;;;;;;;;;;;;;;4938500;29;19937;-86
2024/03/07 12:39:24;;;;;;;;;;;;;;;;;;4938251;28;19915;-87
2024/03/07 12:41:52;;;;;;;;;;;;;;;;;;4938228;28;19918;-86
2024/03/07 12:44:18;;;;;;;;;;;;;;;;;;4938115;29;19915;-87
2024/03/07 12:46:45;;;;;;;;;;;;;;;;;;4937816;29;19915;-84
2024/03/07 18:03:24;;;;;;;;;;;;;;;;;;4920451;28;1213008;-83
2024/03/07 18:05:51;;;;;;;;;;;;;;;;;;4957247;29;19950;-83
2024/03/07 18:08:17;;;;;;;;;;;;;;;;;;4939865;28;19962;-84
2024/03/07 18:10:45;;;;;;;;;;;;;;;;;;4926372;29;19969;-90
2024/03/07 18:13:13;;;;;;;;;;;;;;;;;;4961406;29;19942;-88
2024/03/07 18:15:41;;;;;;;;;;;;;;;;;;4959487;29;19914;-89
2024/03/07 18:18:09;;;;;;;;;;;;;;;;;;4959971;29;19914;-90
2024/03/07 18:20:35;;;;;;;;;;;;;;;;;;4943786;29;19915;-90
2024/03/07 18:23:00;;;;;;;;;;;;;;;;;;4944149;29;19915;-90
2024/03/07 18:25:26;;;;;;;;;;;;;;;;;;4943516;29;20424;-88
2024/03/07 18:27:56;;;;;;;;;;;;;;;;;;4944630;29;19914;-91
2024/03/07 18:30:21;;;;;;;;;;;;;;;;;;4943200;29;20327;-93
2024/03/07 18:32:47;;;;;;;;;;;;;;;;;;4943596;29;19914;-93
2024/03/07 18:35:13;;;;;;;;;;;;;;;;;;4944749;29;19918;-91
2024/03/07 18:38:02;;;;;;;;;;;;;;;;;;4945610;29;19918;-92
2024/03/07 18:40:27;;;;;;;;;;;;;;;;;;4961623;28;19919;-90
2024/03/07 18:42:53;;;;;;;;;;;;;;;;;;4955141;29;19921;-93
2024/03/07 18:45:22;;;;;;;;;;;;;;;;;;4947944;29;19965;-93
2024/03/07 18:47:51;;;;;;;;;;;;;;;;;;4945693;29;19964;-90
2024/03/07 18:50:26;;;;;;;;;;;;;;;;;;4943410;29;19960;-93
2024/03/07 18:52:56;;;;;;;;;;;;;;;;;;4942844;29;19914;-92
2024/03/07 18:55:29;;;;;;;;;;;;;;;;;;4943215;29;20335;-93
2024/03/07 18:58:04;;;;;;;;;;;;;;;;;;4943397;29;19914;-96
2024/03/07 19:00:43;;;;;;;;;;;;;;;;;;4943036;29;19914;-95
2024/03/07 19:03:09;;;;;;;;;;;;;;;;;;4961381;28;19918;-93
2024/03/07 19:05:40;;;;;;;;;;;;;;;;;;4978237;28;19914;-93
2024/03/07 19:08:15;;;;;;;;;;;;;;;;;;4978425;28;20442;-92
2024/03/07 19:10:45;;;;;;;;;;;;;;;;;;4995345;28;19922;-95
2024/03/07 19:13:13;;;;;;;;;;;;;;;;;;4979709;28;19965;-91
2024/03/07 19:15:41;;;;;;;;;;;;;;;;;;4975817;28;19914;-88
2024/03/07 19:18:12;;;;;;;;;;;;;;;;;;4975860;28;20030;-91
2024/03/07 19:20:38;;;;;;;;;;;;;;;;;;4976203;28;19913;-90
2024/03/07 19:23:04;;;;;;;;;;;;;;;;;;4976532;28;19918;-90
2024/03/07 19:25:31;;;;;;;;;;;;;;;;;;4975364;28;19914;-91
2024/03/07 19:27:58;;;;;;;;;;;;;;;;;;4977113;28;19914;-91
2024/03/07 19:30:28;;;;;;;;;;;;;;;;;;4975965;28;19941;-92
2024/03/07 19:32:53;;;;;;;;;;;;;;;;;;4976539;28;19940;-94
2024/03/07 19:35:18;;;;;;;;;;;;;;;;;;4976103;28;19914;-92
2024/03/07 19:37:44;;;;;;;;;;;;;;;;;;4975954;28;20373;-92
2024/03/07 19:40:15;;;;;;;;;;;;;;;;;;4975898;28;19914;-89
2024/03/07 19:42:41;;;;;;;;;;;;;;;;;;4975746;28;20000;-89
2024/03/07 19:45:06;;;;;;;;;;;;;;;;;;4975081;28;19962;-89
2024/03/07 19:47:32;;;;;;;;;;;;;;;;;;4974101;28;19914;-88
2024/03/07 19:49:57;;;;;;;;;;;;;;;;;;4974249;28;20362;-90
2024/03/07 19:52:23;;;;;;;;;;;;;;;;;;4976656;28;19914;-90
2024/03/07 19:54:49;;;;;;;;;;;;;;;;;;4978302;28;19913;-88
2024/03/07 19:57:18;;;;;;;;;;;;;;;;;;4978575;28;19977;-93
2024/03/07 19:59:43;;;;;;;;;;;;;;;;;;4980404;28;19944;-92
2024/03/07 20:02:09;;;;;;;;;;;;;;;;;;4979969;28;20372;-94
2024/03/07 20:04:34;;;;;;;;;;;;;;;;;;4981925;28;20339;-93
2024/03/07 20:07:18;;;;;;;;;;;;;;;;;;4985011;28;19921;-96
2024/03/07 20:09:47;;;;;;;;;;;;;;;;;;4981708;28;19919;-96
2024/03/07 20:12:16;;;;;;;;;;;;;;;;;;4980308;28;20392;-92
2024/03/07 20:14:41;;;;;;;;;;;;;;;;;;4968112;28;19918;-91
2024/03/07 20:17:07;;;;;;;;;;;;;;;;;;4965844;28;19914;-91
2024/03/07 20:19:33;;;;;;;;;;;;;;;;;;4976827;28;20364;-92
2024/03/07 20:21:59;;;;;;;;;;;;;;;;;;4980308;28;19964;-92
2024/03/07 20:24:25;;;;;;;;;;;;;;;;;;4980658;28;19950;-93
2024/03/07 20:26:52;;;;;;;;;;;;;;;;;;4978770;28;19957;-92
2024/03/07 20:29:21;;;;;;;;;;;;;;;;;;4978912;28;19914;-91
2024/03/07 20:31:46;;;;;;;;;;;;;;;;;;4978774;28;19921;-91
2024/03/07 20:34:11;;;;;;;;;;;;;;;;;;4963696;28;19914;-92
2024/03/07 20:36:37;;;;;;;;;;;;;;;;;;4959126;29;19921;-93
2024/03/07 20:39:08;;;;;;;;;;;;;;;;;;4959145;29;19965;-92
2024/03/07 20:41:33;;;;;;;;;;;;;;;;;;4959192;29;19918;-93
2024/03/07 20:43:59;;;;;;;;;;;;;;;;;;4958806;29;19937;-92
2024/03/07 20:46:28;;;;;;;;;;;;;;;;;;4959140;29;19965;-93
2024/03/07 20:48:54;;;;;;;;;;;;;;;;;;4977004;28;19921;-91
2024/03/07 20:51:21;;;;;;;;;;;;;;;;;;4963133;28;19914;-93
2024/03/07 20:53:51;;;;;;;;;;;;;;;;;;4958656;29;19915;-92
2024/03/07 20:56:17;;;;;;;;;;;;;;;;;;4958652;29;19918;-90
2024/03/07 20:58:43;;;;;;;;;;;;;;;;;;4958794;29;19927;-92
2024/03/07 21:01:12;;;;;;;;;;;;;;;;;;4958974;29;19924;-93
2024/03/07 21:03:40;;;;;;;;;;;;;;;;;;4958720;28;19922;-92
2024/03/07 21:06:06;;;;;;;;;;;;;;;;;;4958546;29;20005;-91
2024/03/07 21:08:32;;;;;;;;;;;;;;;;;;4958617;29;19946;-92
2024/03/07 21:11:01;;;;;;;;;;;;;;;;;;4958762;29;19914;-90
2024/03/07 21:13:27;;;;;;;;;;;;;;;;;;4958883;29;20350;-91
2024/03/07 21:15:52;;;;;;;;;;;;;;;;;;4967294;29;19925;-93
2024/03/07 21:18:18;;;;;;;;;;;;;;;;;;4970366;29;20014;-93
2024/03/07 21:20:43;;;;;;;;;;;;;;;;;;4961273;29;19918;-91
2024/03/07 21:23:12;;;;;;;;;;;;;;;;;;4959021;29;20388;-91
2024/03/07 21:25:37;;;;;;;;;;;;;;;;;;4974889;28;19993;-91
2024/03/07 21:28:04;;;;;;;;;;;;;;;;;;4978330;28;19953;-91
2024/03/07 21:30:29;;;;;;;;;;;;;;;;;;4977668;28;19957;-92
2024/03/07 21:32:55;;;;;;;;;;;;;;;;;;4976934;28;19921;-90
2024/03/07 21:35:20;;;;;;;;;;;;;;;;;;4977542;28;19996;-92
2024/03/07 21:37:48;;;;;;;;;;;;;;;;;;4977758;28;19922;-92
2024/03/07 21:40:19;;;;;;;;;;;;;;;;;;4977222;28;19918;-92
2024/03/07 21:42:49;;;;;;;;;;;;;;;;;;4976915;28;19914;-92
2024/03/07 21:45:18;;;;;;;;;;;;;;;;;;4976520;28;19918;-92
2024/03/07 21:47:46;;;;;;;;;;;;;;;;;;4976517;28;19924;-93
2024/03/07 21:50:14;;;;;;;;;;;;;;;;;;4976674;28;19918;-91
2024/03/07 21:52:47;;;;;;;;;;;;;;;;;;4976116;28;19918;-93
2024/03/07 21:55:13;;;;;;;;;;;;;;;;;;4976860;28;19949;-90
2024/03/07 21:57:42;;;;;;;;;;;;;;;;;;4976359;28;19935;-92
2024/03/07 22:00:15;;;;;;;;;;;;;;;;;;4976554;28;20427;-92
2024/03/07 22:02:43;;;;;;;;;;;;;;;;;;4976830;28;19922;-91
2024/03/07 22:05:12;;;;;;;;;;;;;;;;;;4976287;28;19914;-92
2024/03/07 22:07:37;;;;;;;;;;;;;;;;;;4976767;28;19961;-92
2024/03/07 22:10:04;;;;;;;;;;;;;;;;;;4976389;28;19913;-92
2024/03/07 22:12:30;;;;;;;;;;;;;;;;;;4976360;28;19918;-92
2024/03/07 22:14:55;;;;;;;;;;;;;;;;;;4975694;28;20262;-92
2024/03/07 22:17:20;;;;;;;;;;;;;;;;;;4976234;28;20001;-92
2024/03/07 22:19:46;;;;;;;;;;;;;;;;;;4976215;28;20365;-92
2024/03/07 22:22:11;;;;;;;;;;;;;;;;;;4961483;28;19921;-92
2024/03/07 22:24:38;;;;;;;;;;;;;;;;;;4975762;28;19945;-95
2024/03/07 22:27:04;;;;;;;;;;;;;;;;;;4975897;28;19925;-91
2024/03/07 22:29:30;;;;;;;;;;;;;;;;;;4975879;28;19977;-93
2024/03/07 22:31:56;;;;;;;;;;;;;;;;;;4976079;28;19962;-93
2024/03/07 22:34:21;;;;;;;;;;;;;;;;;;4976132;28;19918;-92
2024/03/07 22:36:50;;;;;;;;;;;;;;;;;;4975788;28;19989;-92
2024/03/07 22:39:18;;;;;;;;;;;;;;;;;;4975719;28;20013;-92
2024/03/07 22:41:45;;;;;;;;;;;;;;;;;;4976049;28;19925;-92
2024/03/07 22:44:11;;;;;;;;;;;;;;;;;;4976223;28;19914;-93
2024/03/07 22:46:37;;;;;;;;;;;;;;;;;;4975584;28;20293;-92
2024/03/07 22:49:03;;;;;;;;;;;;;;;;;;4975577;28;19967;-92
2024/03/07 22:51:29;;;;;;;;;;;;;;;;;;4976026;28;20009;-91
2024/03/07 22:53:55;;;;;;;;;;;;;;;;;;4976491;28;19918;-91
2024/03/07 22:56:20;;;;;;;;;;;;;;;;;;4976641;28;19960;-94
2024/03/07 22:58:46;;;;;;;;;;;;;;;;;;4977397;28;19956;-93
2024/03/07 23:01:11;;;;;;;;;;;;;;;;;;4978068;28;20005;-92
2024/03/07 23:03:40;;;;;;;;;;;;;;;;;;4979967;28;19922;-92
2024/03/07 23:06:06;;;;;;;;;;;;;;;;;;4987630;28;19914;-91
2024/03/07 23:08:32;;;;;;;;;;;;;;;;;;4992121;28;20424;-92
2024/03/07 23:10:57;;;;;;;;;;;;;;;;;;4993616;28;19921;-91
2024/03/07 23:13:23;;;;;;;;;;;;;;;;;;4994451;28;20483;-93
2024/03/07 23:15:48;;;;;;;;;;;;;;;;;;4993250;28;19914;-93
2024/03/07 23:18:14;;;;;;;;;;;;;;;;;;4992305;28;19918;-92
2024/03/07 23:20:41;;;;;;;;;;;;;;;;;;4994565;28;19969;-93
2024/03/07 23:23:06;;;;;;;;;;;;;;;;;;4993935;28;19937;-91
2024/03/07 23:25:33;;;;;;;;;;;;;;;;;;4996029;28;19914;-91
2024/03/07 23:28:01;;;;;;;;;;;;;;;;;;4993603;28;19925;-95
2024/03/07 23:30:30;;;;;;;;;;;;;;;;;;4995554;28;19910;-93
2024/03/07 23:32:57;;;;;;;;;;;;;;;;;;4992992;28;19914;-93
